Time;durP1;ratioP1;P1;durP2;ratioP2;P2;SDS_P1;SDS_P2;PMS_P1;PMS_P2;Temp;Humidity;BMP_temperature;BMP_pressure;BME280_temperature;BME280_humidity;BME280_pressure;Samples;Min_cycle;Max_cycle;Signal;HPM_P1;HPM_P2
2021/05/30 00:01:42;;;;;;;;;;;16.50;79.60;;;;;;5019673;28;88456;-62
2021/05/30 00:04:07;;;;;;;;;;;16.40;79.50;;;;;;5020231;28;88958;-64
2021/05/30 00:06:33;;;;;;;;;;;16.40;79.50;;;;;;5019385;28;87881;-62
2021/05/30 00:08:59;;;;;;;;;;;16.40;79.50;;;;;;5020063;28;89126;-62
2021/05/30 00:11:25;;;;;;;;;;;16.40;79.50;;;;;;5021956;28;88263;-62
2021/05/30 00:13:52;;;;;;;;;;;16.40;79.50;;;;;;5016812;28;87163;-62
2021/05/30 00:16:17;;;;;;;;;;;16.40;79.50;;;;;;5020857;28;90085;-63
2021/05/30 00:18:43;;;;;;;;;;;16.30;79.40;;;;;;5019238;28;87634;-62
2021/05/30 00:21:08;;;;;;;;;;;16.30;79.40;;;;;;5017044;28;87620;-62
2021/05/30 00:23:34;;;;;;;;;;;16.40;79.50;;;;;;5015849;28;88708;-62
2021/05/30 00:26:00;;;;;;;;;;;16.30;79.50;;;;;;5016803;28;88296;-62
2021/05/30 00:28:25;;;;;;;;;;;16.40;79.50;;;;;;5016472;28;88116;-62
2021/05/30 00:30:51;;;;;;;;;;;16.30;79.50;;;;;;5017991;28;87170;-63
2021/05/30 00:33:17;;;;;;;;;;;16.30;79.40;;;;;;5022303;28;87153;-63
2021/05/30 00:35:42;;;;;;;;;;;16.30;79.40;;;;;;5019978;28;88805;-63
2021/05/30 00:38:08;;;;;;;;;;;16.30;79.40;;;;;;5019344;28;88200;-63
2021/05/30 00:40:35;;;;;;;;;;;16.30;79.40;;;;;;5019627;28;88721;-62
2021/05/30 00:43:00;;;;;;;;;;;16.30;80.00;;;;;;5020506;28;88946;-62
2021/05/30 00:45:27;;;;;;;;;;;16.30;79.50;;;;;;5021099;28;86436;-63
2021/05/30 00:47:52;;;;;;;;;;;16.30;79.50;;;;;;5020112;28;87204;-63
2021/05/30 00:50:18;;;;;;;;;;;16.30;79.40;;;;;;5019811;28;88764;-63
2021/05/30 00:52:44;;;;;;;;;;;16.30;79.40;;;;;;5019089;28;88829;-62
2021/05/30 00:55:12;;;;;;;;;;;16.30;79.50;;;;;;5023179;28;88667;-62
2021/05/30 00:57:38;;;;;;;;;;;16.20;79.40;;;;;;5017979;28;87329;-62
2021/05/30 01:00:04;;;;;;;;;;;16.20;79.50;;;;;;5018186;28;87161;-62
2021/05/30 01:02:30;;;;;;;;;;;16.20;79.40;;;;;;5015820;28;87696;-62
2021/05/30 01:04:55;;;;;;;;;;;16.20;79.30;;;;;;5017589;28;87139;-62
2021/05/30 01:07:21;;;;;;;;;;;16.20;79.40;;;;;;5018931;28;87504;-62
2021/05/30 01:09:47;;;;;;;;;;;16.20;79.40;;;;;;5020176;28;89440;-62
2021/05/30 01:12:14;;;;;;;;;;;16.20;79.40;;;;;;5019107;28;87243;-61
2021/05/30 01:14:40;;;;;;;;;;;16.20;79.40;;;;;;5016788;28;87419;-62
2021/05/30 01:17:06;;;;;;;;;;;16.20;79.40;;;;;;5019538;28;89299;-62
2021/05/30 01:19:32;;;;;;;;;;;16.20;79.40;;;;;;5018492;28;89988;-62
2021/05/30 01:21:58;;;;;;;;;;;16.10;79.40;;;;;;5017669;28;88859;-62
2021/05/30 01:24:24;;;;;;;;;;;16.10;79.40;;;;;;5016979;28;87372;-62
2021/05/30 01:26:49;;;;;;;;;;;16.10;79.30;;;;;;5017253;28;87802;-62
2021/05/30 01:29:15;;;;;;;;;;;16.10;79.90;;;;;;5018262;28;88086;-62
2021/05/30 01:31:41;;;;;;;;;;;16.10;79.40;;;;;;5018949;28;87194;-62
2021/05/30 01:34:06;;;;;;;;;;;16.10;79.40;;;;;;5018230;28;87166;-62
2021/05/30 01:36:32;;;;;;;;;;;16.10;79.30;;;;;;5017082;28;88332;-62
2021/05/30 01:38:57;;;;;;;;;;;16.10;79.40;;;;;;5022565;28;87226;-61
2021/05/30 01:41:23;;;;;;;;;;;16.10;79.30;;;;;;5017922;28;89189;-62
2021/05/30 01:43:49;;;;;;;;;;;16.10;79.30;;;;;;5019007;28;87252;-61
2021/05/30 01:46:14;;;;;;;;;;;16.10;79.40;;;;;;5019027;28;87635;-62
2021/05/30 01:48:40;;;;;;;;;;;16.10;79.40;;;;;;5021238;28;88172;-62
2021/05/30 01:51:05;;;;;;;;;;;16.10;79.40;;;;;;5022154;28;88395;-61
2021/05/30 01:53:54;;;;;;;;;;;16.00;79.30;;;;;;5018770;28;88446;-62
2021/05/30 01:59:01;;;;;;;;;;;16.00;79.20;;;;;;5022360;28;86413;-62
2021/05/30 02:01:28;;;;;;;;;;;16.00;79.30;;;;;;5024125;28;87251;-62
2021/05/30 02:03:53;;;;;;;;;;;16.00;79.20;;;;;;5020995;28;87169;-62
2021/05/30 02:06:20;;;;;;;;;;;16.00;79.30;;;;;;5020695;28;89109;-62
2021/05/30 02:08:47;;;;;;;;;;;15.90;79.30;;;;;;5019845;28;88965;-62
2021/05/30 02:11:13;;;;;;;;;;;16.00;79.30;;;;;;5019672;28;87124;-62
2021/05/30 02:13:39;;;;;;;;;;;15.90;79.20;;;;;;5020220;28;88892;-62
2021/05/30 02:16:04;;;;;;;;;;;15.90;79.20;;;;;;5020686;28;87668;-62
2021/05/30 02:18:30;;;;;;;;;;;15.90;79.30;;;;;;5021149;28;87195;-63
2021/05/30 02:20:55;;;;;;;;;;;15.90;79.20;;;;;;5023218;28;87580;-62
2021/05/30 02:23:21;;;;;;;;;;;15.90;79.30;;;;;;5022176;28;86426;-62
2021/05/30 02:25:47;;;;;;;;;;;15.90;79.30;;;;;;5022377;28;88262;-62
2021/05/30 02:28:12;;;;;;;;;;;15.90;79.20;;;;;;5021296;28;88687;-62
2021/05/30 02:30:38;;;;;;;;;;;15.80;79.10;;;;;;5020071;28;88705;-62
2021/05/30 02:33:04;;;;;;;;;;;15.90;79.30;;;;;;5018415;28;89058;-62
2021/05/30 02:35:29;;;;;;;;;;;15.90;79.20;;;;;;5018428;28;87970;-62
2021/05/30 02:37:55;;;;;;;;;;;15.90;79.30;;;;;;5019923;28;87142;-62
2021/05/30 02:40:21;;;;;;;;;;;15.90;79.20;;;;;;5021144;28;87435;-62
2021/05/30 02:42:46;;;;;;;;;;;15.80;79.20;;;;;;5023210;28;87980;-62
2021/05/30 02:45:12;;;;;;;;;;;15.80;79.20;;;;;;5021951;28;87232;-62
2021/05/30 02:47:37;;;;;;;;;;;15.80;79.20;;;;;;5022680;28;86915;-62
2021/05/30 02:50:04;;;;;;;;;;;15.80;79.20;;;;;;5021231;28;87138;-62
2021/05/30 02:52:30;;;;;;;;;;;15.80;79.10;;;;;;5019284;28;87356;-62
2021/05/30 02:54:55;;;;;;;;;;;15.80;79.20;;;;;;5018159;28;88778;-62
2021/05/30 02:57:21;;;;;;;;;;;15.80;79.20;;;;;;5020243;28;87138;-62
2021/05/30 02:59:47;;;;;;;;;;;15.70;79.10;;;;;;5019987;28;88630;-62
2021/05/30 03:02:12;;;;;;;;;;;15.80;79.20;;;;;;5020760;28;87992;-62
2021/05/30 03:04:38;;;;;;;;;;;15.80;79.20;;;;;;5024777;28;87261;-62
2021/05/30 03:07:03;;;;;;;;;;;15.70;79.20;;;;;;5021787;28;88676;-62
2021/05/30 03:09:29;;;;;;;;;;;15.70;79.20;;;;;;5021790;28;87306;-62
2021/05/30 03:11:54;;;;;;;;;;;15.70;79.20;;;;;;5022328;28;87953;-62
2021/05/30 03:14:20;;;;;;;;;;;15.70;79.20;;;;;;5020323;28;89646;-62
2021/05/30 03:16:46;;;;;;;;;;;15.70;79.20;;;;;;5018176;28;87890;-62
2021/05/30 03:19:11;;;;;;;;;;;15.70;79.10;;;;;;5017711;28;88125;-62
2021/05/30 03:21:38;;;;;;;;;;;15.70;79.10;;;;;;5018644;28;88012;-62
2021/05/30 03:24:04;;;;;;;;;;;15.70;79.20;;;;;;5017789;28;88026;-62
2021/05/30 03:26:29;;;;;;;;;;;15.70;79.10;;;;;;5019855;28;88557;-62
2021/05/30 03:28:55;;;;;;;;;;;15.60;79.10;;;;;;5018569;28;87171;-62
2021/05/30 03:31:20;;;;;;;;;;;15.60;79.00;;;;;;5019844;28;87183;-62
2021/05/30 03:33:46;;;;;;;;;;;15.60;79.10;;;;;;5020030;28;88175;-62
2021/05/30 03:36:17;;;;;;;;;;;15.60;79.00;;;;;;5019946;28;86429;-62
2021/05/30 03:38:42;;;;;;;;;;;15.60;79.10;;;;;;5018363;28;88218;-62
2021/05/30 03:41:11;;;;;;;;;;;15.60;79.10;;;;;;5016860;28;89773;-62
2021/05/30 03:43:36;;;;;;;;;;;15.60;79.10;;;;;;5019394;28;88096;-63
2021/05/30 03:46:02;;;;;;;;;;;15.60;79.10;;;;;;5019742;28;91954;-63
2021/05/30 03:48:28;;;;;;;;;;;15.60;79.10;;;;;;5024260;28;88273;-64
2021/05/30 03:50:53;;;;;;;;;;;15.60;79.10;;;;;;5021740;28;88839;-63
2021/05/30 03:53:20;;;;;;;;;;;15.50;79.00;;;;;;5018994;28;89509;-62
2021/05/30 03:55:46;;;;;;;;;;;15.60;79.00;;;;;;5018381;28;89004;-62
2021/05/30 03:58:11;;;;;;;;;;;15.60;79.10;;;;;;5016784;28;90047;-61
2021/05/30 04:00:37;;;;;;;;;;;15.50;79.00;;;;;;5016865;28;87651;-62
2021/05/30 04:03:03;;;;;;;;;;;15.50;79.00;;;;;;5019176;28;88821;-63
2021/05/30 04:05:28;;;;;;;;;;;15.50;79.00;;;;;;5020032;28;88765;-62
2021/05/30 04:07:54;;;;;;;;;;;15.50;79.00;;;;;;5015607;28;92256;-62
2021/05/30 04:10:20;;;;;;;;;;;15.50;79.00;;;;;;5020707;28;87107;-62
2021/05/30 04:12:46;;;;;;;;;;;15.50;79.00;;;;;;5016477;28;88252;-62
2021/05/30 04:15:12;;;;;;;;;;;15.50;79.00;;;;;;5016474;28;88843;-62
2021/05/30 04:17:39;;;;;;;;;;;15.50;79.10;;;;;;5020818;28;87481;-62
2021/05/30 04:20:05;;;;;;;;;;;15.50;79.00;;;;;;5020107;28;88131;-62
2021/05/30 04:22:30;;;;;;;;;;;15.40;79.00;;;;;;5021381;28;87226;-62
2021/05/30 04:24:56;;;;;;;;;;;15.50;79.10;;;;;;5021654;28;87302;-63
2021/05/30 04:27:21;;;;;;;;;;;15.40;79.00;;;;;;5021203;28;88841;-63
2021/05/30 04:29:47;;;;;;;;;;;15.40;79.00;;;;;;5022550;28;88838;-63
2021/05/30 04:32:12;;;;;;;;;;;15.40;78.90;;;;;;5017891;28;90122;-62
2021/05/30 04:34:38;;;;;;;;;;;15.40;78.90;;;;;;5016196;28;87318;-62
2021/05/30 04:37:03;;;;;;;;;;;15.40;79.00;;;;;;5017451;28;87138;-62
2021/05/30 04:39:31;;;;;;;;;;;15.40;79.00;;;;;;5015903;28;89402;-62
2021/05/30 04:42:02;;;;;;;;;;;15.40;78.90;;;;;;5019959;28;88216;-62
2021/05/30 04:44:28;;;;;;;;;;;15.40;79.00;;;;;;5020124;28;88879;-62
2021/05/30 04:46:53;;;;;;;;;;;15.40;79.00;;;;;;5017253;28;89618;-62
2021/05/30 04:49:19;;;;;;;;;;;15.40;79.00;;;;;;5017645;28;87588;-62
2021/05/30 04:51:45;;;;;;;;;;;15.40;79.00;;;;;;5019635;28;88321;-62
2021/05/30 04:54:10;;;;;;;;;;;15.40;79.00;;;;;;5016613;28;87217;-62
2021/05/30 04:56:36;;;;;;;;;;;15.40;78.90;;;;;;5016960;28;88132;-62
2021/05/30 04:59:01;;;;;;;;;;;15.30;78.90;;;;;;5018620;28;88158;-62
2021/05/30 05:01:27;;;;;;;;;;;15.40;78.90;;;;;;5018672;28;87264;-62
2021/05/30 05:03:52;;;;;;;;;;;15.40;79.00;;;;;;5019815;28;88979;-63
2021/05/30 05:06:18;;;;;;;;;;;15.30;78.90;;;;;;5019901;28;88375;-62
2021/05/30 05:08:43;;;;;;;;;;;15.30;79.00;;;;;;5019896;28;87913;-62
2021/05/30 05:11:09;;;;;;;;;;;15.30;79.00;;;;;;5016406;28;88967;-62
2021/05/30 05:13:35;;;;;;;;;;;15.30;79.00;;;;;;5018930;28;89355;-62
2021/05/30 05:16:01;;;;;;;;;;;15.30;79.10;;;;;;5016603;28;87183;-62
2021/05/30 05:18:29;;;;;;;;;;;15.30;79.10;;;;;;5016002;28;88093;-62
2021/05/30 05:20:55;;;;;;;;;;;15.30;79.10;;;;;;5018390;28;88094;-62
2021/05/30 05:23:22;;;;;;;;;;;15.30;79.00;;;;;;5018465;28;87979;-62
2021/05/30 05:26:01;;;;;;;;;;;15.30;79.10;;;;;;5016361;28;89530;-62
2021/05/30 05:28:27;;;;;;;;;;;15.30;79.10;;;;;;5019992;28;87182;-63
2021/05/30 05:30:52;;;;;;;;;;;15.30;79.10;;;;;;5020317;28;88700;-63
2021/05/30 05:33:18;;;;;;;;;;;15.30;79.10;;;;;;5019465;28;88227;-62
2021/05/30 05:35:44;;;;;;;;;;;15.30;79.10;;;;;;5021783;28;87298;-62
2021/05/30 05:38:10;;;;;;;;;;;15.30;79.10;;;;;;5019185;28;87323;-62
2021/05/30 05:40:35;;;;;;;;;;;15.30;79.20;;;;;;5017819;28;87192;-62
2021/05/30 05:43:01;;;;;;;;;;;15.30;79.20;;;;;;5016736;28;88443;-62
2021/05/30 05:45:27;;;;;;;;;;;15.30;79.20;;;;;;5014637;28;91249;-62
2021/05/30 05:47:52;;;;;;;;;;;15.20;79.20;;;;;;5017008;28;87117;-62
2021/05/30 05:50:19;;;;;;;;;;;15.20;79.10;;;;;;5017976;28;88494;-61
2021/05/30 05:52:45;;;;;;;;;;;15.20;79.20;;;;;;5017469;28;88586;-62
2021/05/30 05:55:11;;;;;;;;;;;15.20;79.20;;;;;;5018212;28;87197;-62
2021/05/30 05:57:37;;;;;;;;;;;15.20;79.20;;;;;;5021377;28;88937;-62
2021/05/30 06:00:07;;;;;;;;;;;15.20;79.20;;;;;;5018406;28;87184;-62
2021/05/30 06:02:33;;;;;;;;;;;15.20;79.20;;;;;;5019896;28;89436;-62
2021/05/30 06:04:58;;;;;;;;;;;15.20;79.20;;;;;;5018757;28;88026;-62
2021/05/30 06:07:24;;;;;;;;;;;15.20;79.20;;;;;;5019559;28;87199;-62
2021/05/30 06:09:51;;;;;;;;;;;15.20;79.30;;;;;;5019270;28;88153;-63
2021/05/30 06:12:16;;;;;;;;;;;15.20;79.30;;;;;;5018700;28;88135;-62
2021/05/30 06:14:42;;;;;;;;;;;15.20;79.30;;;;;;5019217;28;87358;-62
2021/05/30 06:17:08;;;;;;;;;;;15.20;79.30;;;;;;5022415;28;87383;-62
2021/05/30 06:19:33;;;;;;;;;;;15.20;79.30;;;;;;5019247;28;88669;-63
2021/05/30 06:21:59;;;;;;;;;;;15.20;79.30;;;;;;5019484;28;88860;-62
2021/05/30 06:24:25;;;;;;;;;;;15.20;79.30;;;;;;5020135;28;89492;-62
2021/05/30 06:26:53;;;;;;;;;;;15.20;79.40;;;;;;5019992;28;86588;-62
2021/05/30 06:29:19;;;;;;;;;;;15.20;79.30;;;;;;5021584;28;87265;-62
2021/05/30 06:31:45;;;;;;;;;;;15.20;79.30;;;;;;5021395;28;87649;-63
2021/05/30 06:34:15;;;;;;;;;;;15.20;79.30;;;;;;5021582;28;88075;-63
2021/05/30 06:36:41;;;;;;;;;;;15.20;79.30;;;;;;5019039;28;89562;-62
2021/05/30 06:39:06;;;;;;;;;;;15.20;79.30;;;;;;5020815;28;88791;-62
2021/05/30 06:41:32;;;;;;;;;;;15.20;79.30;;;;;;5019202;28;87153;-62
2021/05/30 06:43:57;;;;;;;;;;;15.20;79.40;;;;;;5019907;28;89505;-62
2021/05/30 06:46:24;;;;;;;;;;;15.20;79.40;;;;;;5021628;28;87172;-62
2021/05/30 06:48:49;;;;;;;;;;;15.20;79.40;;;;;;5020035;28;89072;-61
2021/05/30 06:51:16;;;;;;;;;;;15.20;79.40;;;;;;5019405;28;88324;-62
2021/05/30 06:53:45;;;;;;;;;;;15.20;79.40;;;;;;5018956;28;87135;-62
2021/05/30 06:56:10;;;;;;;;;;;15.20;79.40;;;;;;5020338;28;88854;-62
2021/05/30 06:58:36;;;;;;;;;;;15.20;79.40;;;;;;5020580;28;89204;-62
2021/05/30 07:01:01;;;;;;;;;;;15.20;79.50;;;;;;5023835;28;87206;-62
2021/05/30 07:03:27;;;;;;;;;;;15.20;79.50;;;;;;5020087;28;89360;-62
2021/05/30 07:05:52;;;;;;;;;;;15.10;79.40;;;;;;5021362;28;87168;-62
2021/05/30 07:08:18;;;;;;;;;;;15.20;79.60;;;;;;5022487;28;87288;-62
2021/05/30 07:10:43;;;;;;;;;;;15.10;79.50;;;;;;5018898;28;88284;-62
2021/05/30 07:13:09;;;;;;;;;;;15.20;79.50;;;;;;5018109;28;87186;-62
2021/05/30 07:15:35;;;;;;;;;;;15.20;79.60;;;;;;5019761;28;87631;-62
2021/05/30 07:18:00;;;;;;;;;;;15.20;79.60;;;;;;5019584;28;88708;-62
2021/05/30 07:20:26;;;;;;;;;;;15.10;79.50;;;;;;5019472;28;87210;-62
2021/05/30 07:22:51;;;;;;;;;;;15.20;79.60;;;;;;5022319;28;88119;-62
2021/05/30 07:25:17;;;;;;;;;;;15.20;79.60;;;;;;5021427;28;87203;-62
2021/05/30 07:27:42;;;;;;;;;;;15.20;79.60;;;;;;5021541;28;87204;-62
2021/05/30 07:30:08;;;;;;;;;;;15.10;79.60;;;;;;5020476;28;88932;-62
2021/05/30 07:32:34;;;;;;;;;;;15.20;79.60;;;;;;5019283;28;88809;-63
2021/05/30 07:34:59;;;;;;;;;;;15.20;79.60;;;;;;5021719;28;87218;-64
2021/05/30 07:37:25;;;;;;;;;;;15.20;79.60;;;;;;5021123;28;87833;-62
2021/05/30 07:39:50;;;;;;;;;;;15.20;79.60;;;;;;5021776;28;86418;-63
2021/05/30 07:42:16;;;;;;;;;;;15.20;79.60;;;;;;5020885;28;88178;-62
2021/05/30 07:44:42;;;;;;;;;;;15.20;79.60;;;;;;5020898;28;88177;-62
2021/05/30 07:47:07;;;;;;;;;;;15.20;79.60;;;;;;5016271;28;88169;-62
2021/05/30 07:49:33;;;;;;;;;;;15.20;79.60;;;;;;5018467;28;88612;-62
2021/05/30 07:52:02;;;;;;;;;;;15.20;79.60;;;;;;5018210;28;88461;-62
2021/05/30 07:54:28;;;;;;;;;;;15.20;79.60;;;;;;5018655;28;87332;-62
2021/05/30 07:56:53;;;;;;;;;;;15.20;79.70;;;;;;5018472;28;88513;-62
2021/05/30 07:59:20;;;;;;;;;;;15.20;79.70;;;;;;5019449;28;87271;-62
2021/05/30 08:01:46;;;;;;;;;;;15.20;79.70;;;;;;5019354;28;87797;-63
2021/05/30 08:04:12;;;;;;;;;;;15.20;79.70;;;;;;5019399;28;88926;-62
2021/05/30 08:06:38;;;;;;;;;;;15.20;79.70;;;;;;5023229;28;87143;-63
2021/05/30 08:09:03;;;;;;;;;;;15.20;79.70;;;;;;5021019;28;88261;-62
2021/05/30 08:11:29;;;;;;;;;;;15.20;79.70;;;;;;5020198;28;88095;-63
2021/05/30 08:13:56;;;;;;;;;;;15.20;79.70;;;;;;5019678;28;87989;-62
2021/05/30 08:16:21;;;;;;;;;;;15.20;79.70;;;;;;5017296;28;87735;-62
2021/05/30 08:18:48;;;;;;;;;;;15.20;79.70;;;;;;5017627;28;87160;-62
2021/05/30 08:21:13;;;;;;;;;;;15.30;79.70;;;;;;5016502;28;88762;-62
2021/05/30 08:23:42;;;;;;;;;;;15.30;79.80;;;;;;5016851;28;87567;-62
2021/05/30 08:26:08;;;;;;;;;;;15.30;79.80;;;;;;5023901;28;88002;-62
2021/05/30 08:28:33;;;;;;;;;;;15.20;79.70;;;;;;5021173;28;86808;-63
2021/05/30 08:30:59;;;;;;;;;;;15.30;79.80;;;;;;5019715;28;88616;-62
2021/05/30 08:33:24;;;;;;;;;;;15.30;79.90;;;;;;5021237;28;87214;-63
2021/05/30 08:35:50;;;;;;;;;;;15.30;79.80;;;;;;5019540;28;88741;-63
2021/05/30 08:38:15;;;;;;;;;;;15.20;79.80;;;;;;5020013;28;87167;-62
2021/05/30 08:40:42;;;;;;;;;;;15.30;79.90;;;;;;5020776;28;88033;-62
2021/05/30 08:43:09;;;;;;;;;;;15.30;79.80;;;;;;5020739;28;88260;-63
2021/05/30 08:45:35;;;;;;;;;;;15.20;79.70;;;;;;5018627;28;87250;-63
2021/05/30 08:48:00;;;;;;;;;;;15.30;79.70;;;;;;5021689;28;87210;-63
2021/05/30 08:50:26;;;;;;;;;;;15.30;79.80;;;;;;5020837;28;88647;-62
2021/05/30 08:52:51;;;;;;;;;;;15.30;79.80;;;;;;5018313;28;87970;-62
2021/05/30 08:55:17;;;;;;;;;;;15.30;79.80;;;;;;5019540;28;89187;-63
2021/05/30 08:57:43;;;;;;;;;;;15.30;79.80;;;;;;5018946;28;87901;-62
2021/05/30 09:00:10;;;;;;;;;;;15.30;79.70;;;;;;5015399;28;88102;-62
2021/05/30 09:02:35;;;;;;;;;;;15.30;79.70;;;;;;5017064;28;88257;-62
2021/05/30 09:05:03;;;;;;;;;;;15.30;79.70;;;;;;5015813;28;87269;-62
2021/05/30 09:07:41;;;;;;;;;;;15.30;79.60;;;;;;5019746;28;88672;-63
2021/05/30 09:10:08;;;;;;;;;;;15.30;79.60;;;;;;5019279;28;89253;-62
2021/05/30 09:12:40;;;;;;;;;;;15.30;79.60;;;;;;5020415;28;88930;-62
2021/05/30 09:15:14;;;;;;;;;;;15.30;79.60;;;;;;5018449;28;89688;-63
2021/05/30 09:17:39;;;;;;;;;;;15.30;79.60;;;;;;5016860;28;86396;-62
2021/05/30 09:20:06;;;;;;;;;;;15.30;79.60;;;;;;5017561;28;87202;-62
2021/05/30 09:22:36;;;;;;;;;;;15.30;79.60;;;;;;5016698;28;87985;-63
2021/05/30 09:25:08;;;;;;;;;;;15.30;79.50;;;;;;5016588;28;88201;-62
2021/05/30 09:27:35;;;;;;;;;;;15.30;79.60;;;;;;5016864;28;89875;-62
2021/05/30 09:30:19;;;;;;;;;;;15.30;79.50;;;;;;5018377;28;88294;-63
2021/05/30 09:33:13;;;;;;;;;;;15.30;79.50;;;;;;5022522;28;87269;-63
2021/05/30 09:35:44;;;;;;;;;;;15.30;79.40;;;;;;5014960;28;89439;-62
2021/05/30 09:38:36;;;;;;;;;;;15.30;79.40;;;;;;5019567;28;87214;-62
2021/05/30 09:41:06;;;;;;;;;;;15.30;79.40;;;;;;5015277;28;88633;-63
2021/05/30 09:43:36;;;;;;;;;;;15.40;79.40;;;;;;5017085;28;89297;-61
2021/05/30 09:46:10;;;;;;;;;;;15.40;79.40;;;;;;5018511;28;87144;-62
2021/05/30 09:48:41;;;;;;;;;;;15.40;79.60;;;;;;5019706;28;89226;-62
2021/05/30 09:51:21;;;;;;;;;;;15.40;79.50;;;;;;5014736;28;90871;-62
2021/05/30 09:53:47;;;;;;;;;;;15.40;79.20;;;;;;5018831;28;87576;-62
2021/05/30 09:56:39;;;;;;;;;;;15.40;79.30;;;;;;5022555;28;87160;-63
2021/05/30 09:59:06;;;;;;;;;;;15.40;79.20;;;;;;5018024;28;87183;-63
2021/05/30 10:01:47;;;;;;;;;;;15.40;79.20;;;;;;5018726;28;88706;-62
2021/05/30 10:04:13;;;;;;;;;;;15.40;79.20;;;;;;5020525;28;88620;-62
2021/05/30 10:06:39;;;;;;;;;;;15.50;79.20;;;;;;5019256;28;88666;-62
2021/05/30 10:09:05;;;;;;;;;;;15.40;79.20;;;;;;5023993;28;87189;-63
2021/05/30 10:11:30;;;;;;;;;;;15.40;78.90;;;;;;5022344;28;88090;-63
2021/05/30 10:13:56;;;;;;;;;;;15.50;78.80;;;;;;5022802;28;87210;-63
2021/05/30 10:16:23;;;;;;;;;;;15.50;78.70;;;;;;5021956;28;88298;-62
2021/05/30 10:18:51;;;;;;;;;;;15.50;78.70;;;;;;5025365;28;89064;-62
2021/05/30 10:21:17;;;;;;;;;;;15.50;78.30;;;;;;5019438;28;88773;-63
2021/05/30 10:23:44;;;;;;;;;;;15.50;78.40;;;;;;5018799;28;89276;-63
2021/05/30 10:26:11;;;;;;;;;;;15.50;78.10;;;;;;5018462;28;87123;-63
2021/05/30 10:28:44;;;;;;;;;;;15.60;78.20;;;;;;5018816;28;88905;-63
2021/05/30 10:31:26;;;;;;;;;;;15.60;78.10;;;;;;5020738;28;88275;-63
2021/05/30 10:34:11;;;;;;;;;;;15.60;78.20;;;;;;5019702;28;86485;-62
2021/05/30 10:36:38;;;;;;;;;;;15.60;78.30;;;;;;5021495;28;87199;-62
2021/05/30 10:39:13;;;;;;;;;;;15.60;78.30;;;;;;5023841;28;88460;-63
2021/05/30 10:41:39;;;;;;;;;;;15.60;78.40;;;;;;5021973;28;88260;-64
2021/05/30 10:44:05;;;;;;;;;;;15.70;78.00;;;;;;5020752;28;88624;-62
2021/05/30 10:46:47;;;;;;;;;;;15.70;78.30;;;;;;5018003;28;87141;-63
2021/05/30 10:49:13;;;;;;;;;;;15.70;78.40;;;;;;5022147;28;87752;-62
2021/05/30 10:51:45;;;;;;;;;;;15.70;78.40;;;;;;5022204;28;88633;-62
2021/05/30 10:54:12;;;;;;;;;;;15.70;78.20;;;;;;5022116;28;87169;-63
2021/05/30 10:56:39;;;;;;;;;;;15.70;78.20;;;;;;5021010;28;88812;-63
2021/05/30 10:59:11;;;;;;;;;;;15.70;78.20;;;;;;5018466;28;88908;-63
2021/05/30 11:01:40;;;;;;;;;;;15.80;78.20;;;;;;5024242;28;89090;-64
2021/05/30 11:04:18;;;;;;;;;;;15.80;78.00;;;;;;5017591;28;89181;-62
2021/05/30 11:06:45;;;;;;;;;;;15.80;77.90;;;;;;5021510;28;88070;-62
2021/05/30 11:09:10;;;;;;;;;;;15.80;78.10;;;;;;5020125;28;89542;-62
2021/05/30 11:11:36;;;;;;;;;;;15.80;78.00;;;;;;5021228;28;88320;-63
2021/05/30 11:14:12;;;;;;;;;;;15.80;77.80;;;;;;5022454;28;87127;-63
2021/05/30 11:16:44;;;;;;;;;;;15.80;77.70;;;;;;5021016;28;87769;-62
2021/05/30 11:19:11;;;;;;;;;;;15.80;77.70;;;;;;5020305;28;88127;-63
2021/05/30 11:21:38;;;;;;;;;;;15.80;77.50;;;;;;5018886;28;87136;-62
2021/05/30 11:24:05;;;;;;;;;;;15.80;77.60;;;;;;5023416;28;89103;-63
2021/05/30 11:26:30;;;;;;;;;;;15.80;77.70;;;;;;5020915;28;87130;-63
2021/05/30 11:28:56;;;;;;;;;;;15.80;77.80;;;;;;5022244;28;87512;-63
2021/05/30 11:31:22;;;;;;;;;;;15.80;78.50;;;;;;5018461;28;90919;-63
2021/05/30 11:33:58;;;;;;;;;;;15.90;77.90;;;;;;5017587;28;88663;-62
2021/05/30 11:36:23;;;;;;;;;;;15.90;77.70;;;;;;5018322;28;87465;-63
2021/05/30 11:38:54;;;;;;;;;;;15.90;77.60;;;;;;5019226;28;90004;-62
2021/05/30 11:41:24;;;;;;;;;;;15.80;77.50;;;;;;5020449;28;87222;-63
2021/05/30 11:43:52;;;;;;;;;;;15.90;77.80;;;;;;5021163;28;88350;-63
2021/05/30 11:46:18;;;;;;;;;;;15.80;77.80;;;;;;5020981;28;87893;-62
2021/05/30 11:48:43;;;;;;;;;;;15.90;77.90;;;;;;5020170;28;87096;-63
2021/05/30 11:51:09;;;;;;;;;;;15.90;77.70;;;;;;5020631;28;87901;-63
2021/05/30 11:53:35;;;;;;;;;;;15.90;77.60;;;;;;5021732;28;87132;-64
2021/05/30 11:56:04;;;;;;;;;;;15.90;77.80;;;;;;5020022;28;89111;-63
2021/05/30 11:58:30;;;;;;;;;;;15.90;77.70;;;;;;5020654;28;89604;-63
2021/05/30 12:00:55;;;;;;;;;;;15.90;77.70;;;;;;5020247;28;87174;-63
2021/05/30 12:03:21;;;;;;;;;;;15.90;77.60;;;;;;5019474;28;88966;-63
2021/05/30 12:05:47;;;;;;;;;;;15.90;77.80;;;;;;5018784;28;88998;-63
2021/05/30 12:08:16;;;;;;;;;;;15.90;77.80;;;;;;5023331;28;87182;-63
2021/05/30 12:10:49;;;;;;;;;;;15.90;77.90;;;;;;5019778;28;89260;-63
2021/05/30 12:13:34;;;;;;;;;;;15.90;77.60;;;;;;5019424;28;86452;-63
2021/05/30 12:16:20;;;;;;;;;;;15.90;77.80;;;;;;5019733;28;87179;-63
2021/05/30 12:18:49;;;;;;;;;;;15.90;77.90;;;;;;5018089;28;89302;-63
2021/05/30 12:21:15;;;;;;;;;;;15.90;78.10;;;;;;5018504;28;88187;-63
2021/05/30 12:23:40;;;;;;;;;;;15.90;78.10;;;;;;5016806;28;88907;-62
2021/05/30 12:26:09;;;;;;;;;;;15.90;78.20;;;;;;5017016;28;87733;-62
2021/05/30 12:28:36;;;;;;;;;;;15.90;78.30;;;;;;5019338;28;87154;-60
2021/05/30 12:31:08;;;;;;;;;;;15.90;78.20;;;;;;5021688;28;89380;-64
2021/05/30 12:33:53;;;;;;;;;;;15.90;78.30;;;;;;5018455;28;87178;-65
2021/05/30 12:36:29;;;;;;;;;;;15.90;77.50;;;;;;5020434;28;88675;-61
2021/05/30 12:39:03;;;;;;;;;;;15.90;73.50;;;;;;5019816;28;88519;-63
2021/05/30 12:41:30;;;;;;;;;;;15.90;74.80;;;;;;5020579;28;87197;-65
2021/05/30 12:44:04;;;;;;;;;;;16.00;73.70;;;;;;5017910;28;87276;-68
2021/05/30 12:46:29;;;;;;;;;;;16.00;74.40;;;;;;5018773;28;88238;-74
2021/05/30 12:48:55;;;;;;;;;;;16.00;72.30;;;;;;5020240;28;87178;-63
2021/05/30 12:51:22;;;;;;;;;;;16.00;73.00;;;;;;5022263;28;87978;-68
2021/05/30 12:53:48;;;;;;;;;;;16.10;73.20;;;;;;5017803;28;87151;-61
2021/05/30 12:56:31;;;;;;;;;;;16.10;72.60;;;;;;5017989;28;88637;-64
2021/05/30 12:59:09;;;;;;;;;;;16.00;73.50;;;;;;5018018;28;87886;-60
2021/05/30 13:01:36;;;;;;;;;;;16.00;72.80;;;;;;5018489;28;87214;-60
2021/05/30 13:04:18;;;;;;;;;;;16.00;73.50;;;;;;5018931;28;88582;-60
2021/05/30 13:06:56;;;;;;;;;;;16.00;74.10;;;;;;5017361;28;89496;-60
2021/05/30 13:09:22;;;;;;;;;;;16.00;74.60;;;;;;5017142;28;88084;-60
2021/05/30 13:11:47;;;;;;;;;;;16.00;74.70;;;;;;5020026;28;88835;-61
2021/05/30 13:14:32;;;;;;;;;;;16.00;74.90;;;;;;5022455;28;89636;-61
2021/05/30 13:17:16;;;;;;;;;;;16.00;75.20;;;;;;5019981;28;87463;-61
2021/05/30 13:20:01;;;;;;;;;;;16.00;75.40;;;;;;5015578;28;87723;-60
2021/05/30 13:22:26;;;;;;;;;;;16.00;75.60;;;;;;5018779;28;87274;-61
2021/05/30 13:24:52;;;;;;;;;;;16.00;75.90;;;;;;5019662;28;88568;-61
2021/05/30 13:27:24;;;;;;;;;;;16.00;76.50;;;;;;5018810;28;89233;-60
2021/05/30 13:30:19;;;;;;;;;;;16.00;76.10;;;;;;5019892;28;86472;-61
2021/05/30 13:32:44;;;;;;;;;;;15.90;76.10;;;;;;5010886;28;88360;-61
2021/05/30 13:35:10;;;;;;;;;;;16.00;76.40;;;;;;5021710;28;89552;-61
2021/05/30 13:37:35;;;;;;;;;;;16.00;76.30;;;;;;5025295;28;89599;-60
2021/05/30 13:40:03;;;;;;;;;;;16.00;76.50;;;;;;5019401;28;88807;-60
2021/05/30 13:42:29;;;;;;;;;;;16.00;76.60;;;;;;5023376;28;87152;-62
2021/05/30 13:44:54;;;;;;;;;;;16.00;76.70;;;;;;5023815;28;87709;-65
2021/05/30 13:47:21;;;;;;;;;;;16.00;76.80;;;;;;5020868;28;88905;-60
2021/05/30 13:49:46;;;;;;;;;;;15.90;76.90;;;;;;5020698;28;87899;-60
2021/05/30 13:52:12;;;;;;;;;;;16.00;77.00;;;;;;5019130;28;87452;-60
2021/05/30 13:54:38;;;;;;;;;;;16.00;77.10;;;;;;5020197;28;88969;-60
2021/05/30 13:57:03;;;;;;;;;;;16.00;77.20;;;;;;5020991;28;87192;-61
2021/05/30 13:59:31;;;;;;;;;;;16.00;77.20;;;;;;5024103;28;87167;-61
2021/05/30 14:01:57;;;;;;;;;;;16.00;77.30;;;;;;5017719;28;89631;-60
2021/05/30 14:04:22;;;;;;;;;;;16.00;77.30;;;;;;5018696;28;90011;-60
2021/05/30 14:06:48;;;;;;;;;;;16.00;77.40;;;;;;5018846;28;88108;-61
2021/05/30 14:09:13;;;;;;;;;;;16.00;77.40;;;;;;5018468;28;88389;-60
2021/05/30 14:11:39;;;;;;;;;;;16.00;77.40;;;;;;5021385;28;88823;-60
2021/05/30 14:14:05;;;;;;;;;;;16.00;77.50;;;;;;5019270;28;89515;-60
2021/05/30 14:16:30;;;;;;;;;;;16.00;77.50;;;;;;5018837;28;87186;-60
2021/05/30 14:18:57;;;;;;;;;;;16.00;77.60;;;;;;5020364;28;87010;-60
2021/05/30 14:21:23;;;;;;;;;;;16.00;77.60;;;;;;5022603;28;89223;-60